Time;durP1;ratioP1;P1;durP2;ratioP2;P2;SDS_P1;SDS_P2;PMS_P1;PMS_P2;Temp;Humidity;BMP_temperature;BMP_pressure;BME280_temperature;BME280_humidity;BME280_pressure;Samples;Min_cycle;Max_cycle;Signal;HPM_P1;HPM_P2
2022/07/28 00:03:33;;;;;;;4.32;2.03;;;;;;;10.36;83.95;99596.66;8458871;28;20556;-82
2022/07/28 00:07:34;;;;;;;3.90;2.53;;;;;;;10.31;84.11;99588.59;8446877;28;20048;-82
2022/07/28 00:11:35;;;;;;;5.72;2.28;;;;;;;10.30;83.94;99587.03;8446126;28;20132;-83
2022/07/28 00:15:36;;;;;;;6.38;2.60;;;;;;;10.26;83.93;99585.97;8460215;28;20047;-82
2022/07/28 00:19:37;;;;;;;5.68;2.60;;;;;;;10.21;84.00;99588.75;8445842;28;20039;-82
2022/07/28 00:23:38;;;;;;;7.32;2.40;;;;;;;10.19;83.70;99590.97;8460554;28;20051;-82
2022/07/28 00:27:39;;;;;;;8.45;2.47;;;;;;;10.17;83.77;99582.34;8446113;28;20093;-82
2022/07/28 00:31:40;;;;;;;4.43;2.42;;;;;;;10.16;83.96;99583.44;8462430;28;20048;-83
2022/07/28 00:35:40;;;;;;;3.78;2.80;;;;;;;10.14;83.98;99583.72;8466805;28;20126;-82
2022/07/28 00:39:42;;;;;;;4.03;2.63;;;;;;;10.15;84.03;99584.53;8466341;28;20057;-82
2022/07/28 00:43:47;;;;;;;6.30;2.70;;;;;;;10.10;84.09;99587.28;8422954;28;20058;-82
2022/07/28 00:47:48;;;;;;;5.13;2.30;;;;;;;10.03;83.97;99581.47;8465798;28;20104;-82
2022/07/28 00:51:48;;;;;;;9.65;3.10;;;;;;;9.94;84.26;99584.03;8414198;28;20490;-80
2022/07/28 00:55:50;;;;;;;5.65;2.80;;;;;;;9.88;84.29;99576.31;8465142;28;20044;-83
2022/07/28 00:59:50;;;;;;;4.40;2.58;;;;;;;9.85;84.26;99584.97;8432674;28;20047;-82
2022/07/28 01:03:55;;;;;;;8.48;2.88;;;;;;;9.82;84.38;99585.56;8465784;28;20423;-81
2022/07/28 01:08:04;;;;;;;7.03;2.78;;;;;;;9.82;84.75;99585.56;8463539;28;20130;-81
2022/07/28 01:12:23;;;;;;;13.77;3.28;;;;;;;9.84;84.66;99577.97;8447194;28;20062;-82
2022/07/28 01:16:24;;;;;;;16.73;2.97;;;;;;;9.80;84.66;99582.34;8454604;28;20050;-82
2022/07/28 01:20:40;;;;;;;6.13;3.05;;;;;;;9.73;84.35;99588.91;8454194;28;20047;-82
2022/07/28 01:25:12;;;;;;;9.23;3.00;;;;;;;9.63;84.43;99589.06;8461893;28;20047;-82
2022/07/28 01:29:50;;;;;;;5.82;2.97;;;;;;;9.58;84.38;99591.81;8399250;28;20395;-82
2022/07/28 01:33:57;;;;;;;9.95;2.83;;;;;;;9.52;84.18;99587.56;8464720;28;20130;-82
2022/07/28 01:38:02;;;;;;;7.53;2.20;;;;;;;9.47;84.49;99593.03;8446326;28;20043;-82
2022/07/28 01:42:05;;;;;;;7.68;3.00;;;;;;;9.46;84.70;99586.06;8412321;28;20071;-81
2022/07/28 01:46:07;;;;;;;8.18;2.90;;;;;;;9.48;84.61;99586.56;8453186;28;20063;-82
2022/07/28 01:50:09;;;;;;;9.93;3.05;;;;;;;9.42;84.81;99598.50;8447627;28;20056;-83
2022/07/28 01:54:10;;;;;;;7.32;2.60;;;;;;;9.37;84.63;99603.94;8461184;28;20398;-82
2022/07/28 01:58:13;;;;;;;6.10;2.22;;;;;;;9.32;84.57;99604.00;8440690;28;20499;-82
2022/07/28 02:02:16;;;;;;;5.97;1.92;;;;;;;9.23;84.63;99600.34;8460185;28;20044;-82
2022/07/28 02:06:18;;;;;;;5.53;2.05;;;;;;;9.15;84.80;99600.97;8458091;28;20048;-82
2022/07/28 02:10:20;;;;;;;5.78;2.15;;;;;;;9.15;84.92;99598.28;8449046;28;20392;-81
2022/07/28 02:14:23;;;;;;;4.85;2.17;;;;;;;9.14;84.59;99610.16;8464343;28;20039;-81
2022/07/28 02:18:24;;;;;;;11.32;2.60;;;;;;;9.13;84.57;99603.16;8463202;28;20479;-82
2022/07/28 02:22:26;;;;;;;9.45;2.70;;;;;;;9.07;84.72;99612.41;8444418;28;20100;-83
2022/07/28 02:26:33;;;;;;;5.40;2.28;;;;;;;9.02;84.46;99609.75;8461691;28;20040;-82
2022/07/28 02:30:40;;;;;;;8.35;2.20;;;;;;;8.99;84.56;99604.97;8448914;28;20039;-82
2022/07/28 02:34:43;;;;;;;11.05;2.42;;;;;;;8.94;84.59;99607.69;8448752;28;20491;-82
2022/07/28 02:38:45;;;;;;;11.30;2.22;;;;;;;8.92;84.89;99615.25;8438531;28;20491;-83
2022/07/28 02:42:48;;;;;;;8.80;1.70;;;;;;;8.93;84.96;99612.28;8457740;28;20095;-82
2022/07/28 02:46:51;;;;;;;6.82;1.70;;;;;;;8.92;84.81;99615.25;8446068;28;20062;-82
2022/07/28 02:50:54;;;;;;;3.65;1.80;;;;;;;8.92;84.89;99620.66;8454553;28;20534;-82
2022/07/28 02:54:55;;;;;;;7.43;1.83;;;;;;;8.92;85.26;99626.03;8443915;28;20534;-83
2022/07/28 02:58:57;;;;;;;6.53;1.65;;;;;;;8.94;84.86;99629.22;8448770;28;20058;-82
2022/07/28 03:02:58;;;;;;;3.67;1.63;;;;;;;8.86;84.68;99639.56;8412310;28;20065;-83
2022/07/28 03:06:59;;;;;;;6.53;1.48;;;;;;;8.82;84.99;99633.13;8462018;28;20052;-82
2022/07/28 03:11:11;;;;;;;7.20;1.85;;;;;;;8.80;84.51;99646.06;8461781;28;20505;-82
2022/07/28 03:15:13;;;;;;;3.88;1.58;;;;;;;8.74;84.58;99647.19;8461846;28;20043;-82
2022/07/28 03:19:14;;;;;;;6.80;1.52;;;;;;;8.70;84.78;99661.50;8460873;28;20050;-82
2022/07/28 03:23:15;;;;;;;4.13;1.70;;;;;;;8.69;84.97;99655.31;8448981;28;20060;-82
2022/07/28 03:27:29;;;;;;;7.13;1.52;;;;;;;8.74;85.10;99657.97;8455096;28;20052;-81
2022/07/28 03:31:32;;;;;;;3.45;1.38;;;;;;;8.76;84.86;99666.56;8396464;28;20048;-82
2022/07/28 03:35:34;;;;;;;5.22;1.60;;;;;;;8.73;84.92;99666.31;8411028;28;20055;-83
2022/07/28 03:39:42;;;;;;;5.18;1.35;;;;;;;8.71;84.91;99669.31;8454727;28;20050;-81
2022/07/28 03:43:43;;;;;;;5.20;1.27;;;;;;;8.73;84.98;99672.50;8459615;28;20096;-83
2022/07/28 03:47:53;;;;;;;4.10;1.33;;;;;;;8.73;85.21;99667.13;8459888;28;20044;-83
2022/07/28 03:51:54;;;;;;;3.17;1.20;;;;;;;8.73;85.03;99672.50;8411017;28;20051;-83
2022/07/28 03:55:55;;;;;;;7.70;1.60;;;;;;;8.80;85.22;99673.00;8398267;28;20044;-83
2022/07/28 03:59:56;;;;;;;5.13;1.40;;;;;;;8.88;85.15;99674.28;8454952;28;20039;-83
2022/07/28 04:03:57;;;;;;;3.13;1.30;;;;;;;8.98;84.90;99678.78;8456461;28;20081;-83
2022/07/28 04:07:58;;;;;;;3.88;1.50;;;;;;;9.03;84.57;99678.72;8422487;28;20048;-83
2022/07/28 04:11:59;;;;;;;5.00;1.85;;;;;;;9.06;85.03;99676.25;8462950;28;20051;-78
2022/07/28 04:16:00;;;;;;;6.88;2.05;;;;;;;9.14;85.19;99674.84;8467770;28;20495;-83
2022/07/28 04:20:01;;;;;;;9.27;1.50;;;;;;;9.26;85.08;99675.22;8467906;28;20487;-82
2022/07/28 04:24:02;;;;;;;3.78;1.38;;;;;;;9.41;84.68;99677.75;8461913;28;20058;-83
2022/07/28 04:28:03;;;;;;;5.13;1.50;;;;;;;9.56;84.49;99680.31;8464332;28;20138;-82
2022/07/28 04:32:04;;;;;;;10.57;1.92;;;;;;;9.71;84.07;99677.41;8402293;28;20052;-83
2022/07/28 04:36:05;;;;;;;5.07;1.40;;;;;;;9.86;83.91;99681.00;8410203;28;20048;-84
2022/07/28 04:40:08;;;;;;;2.92;1.38;;;;;;;10.00;83.63;99673.78;8459403;28;20488;-84
2022/07/28 04:44:10;;;;;;;7.15;1.60;;;;;;;10.13;83.65;99673.09;8413219;28;20047;-83
2022/07/28 04:48:12;;;;;;;3.40;1.70;;;;;;;10.29;83.73;99677.19;8460534;28;20048;-83
2022/07/28 04:52:14;;;;;;;9.68;1.70;;;;;;;10.44;83.21;99668.84;8461681;28;20039;-84
2022/07/28 04:56:15;;;;;;;6.65;1.73;;;;;;;10.59;83.16;99682.13;8462662;27;20051;-83
2022/07/28 05:00:16;;;;;;;4.30;1.67;;;;;;;10.75;83.37;99673.75;8461168;28;20709;-83
2022/07/28 05:04:17;;;;;;;9.80;1.80;;;;;;;10.91;83.41;99684.03;8453727;28;20115;-84
2022/07/28 05:08:18;;;;;;;4.78;2.10;;;;;;;11.07;83.34;99676.44;8435478;28;20555;-83
2022/07/28 05:12:19;;;;;;;6.40;2.28;;;;;;;11.25;83.33;99678.28;8405886;28;20040;-83
2022/07/28 05:16:20;;;;;;;2.80;1.80;;;;;;;11.41;83.55;99676.09;8386192;28;20560;-83
2022/07/28 05:20:21;;;;;;;7.85;2.40;;;;;;;11.57;83.88;99674.69;8451075;28;20071;-83
2022/07/28 05:24:22;;;;;;;10.43;2.70;;;;;;;11.74;85.61;99674.09;8445751;28;20117;-83
2022/07/28 05:28:23;;;;;;;10.57;2.78;;;;;;;11.91;85.22;99674.28;8434794;28;20050;-84
2022/07/28 05:32:24;;;;;;;11.85;2.42;;;;;;;12.07;85.05;99678.25;8440700;28;20036;-82
2022/07/28 05:36:25;;;;;;;11.40;2.30;;;;;;;12.25;85.05;99688.16;8410031;28;20072;-82
2022/07/28 05:40:26;;;;;;;7.63;2.22;;;;;;;12.37;84.42;99692.22;8452269;28;20050;-83
2022/07/28 05:44:27;;;;;;;9.38;2.08;;;;;;;12.49;83.86;99695.19;8445931;28;20068;-83
2022/07/28 05:48:28;;;;;;;5.72;1.90;;;;;;;12.57;83.27;99697.16;8382130;28;20052;-83
2022/07/28 05:52:31;;;;;;;6.95;2.10;;;;;;;12.67;82.65;99705.06;8430578;28;20089;-83
2022/07/28 05:56:32;;;;;;;8.82;1.92;;;;;;;12.78;82.37;99709.13;8441815;28;20097;-84
2022/07/28 06:00:33;;;;;;;8.70;1.85;;;;;;;12.89;81.97;99705.06;8449771;28;20062;-83
2022/07/28 06:04:34;;;;;;;5.50;1.90;;;;;;;13.00;81.59;99711.03;8464534;28;20414;-83
2022/07/28 06:08:35;;;;;;;15.73;2.10;;;;;;;13.11;82.05;99713.16;8464345;28;20172;-84
2022/07/28 06:12:40;;;;;;;9.85;2.35;;;;;;;13.28;82.17;99727.94;8463943;28;20474;-84
2022/07/28 06:16:42;;;;;;;11.50;1.90;;;;;;;13.37;80.11;99726.09;8463711;28;20055;-82
2022/07/28 06:20:43;;;;;;;8.55;1.67;;;;;;;13.53;79.18;99730.00;8447209;28;20060;-82
2022/07/28 06:24:44;;;;;;;10.48;2.03;;;;;;;13.62;79.06;99728.13;8460212;28;20043;-84
2022/07/28 06:28:45;;;;;;;10.45;1.70;;;;;;;13.73;78.11;99729.44;8416440;28;20067;-83
2022/07/28 06:32:46;;;;;;;7.60;1.75;;;;;;;13.85;77.25;99732.31;8410745;28;20562;-82
2022/07/28 06:36:47;;;;;;;7.18;1.50;;;;;;;14.00;76.09;99738.47;8463840;28;20047;-83
2022/07/28 06:40:48;;;;;;;6.43;1.73;;;;;;;14.05;75.67;99736.41;8458351;28;20463;-82
2022/07/28 06:44:50;;;;;;;8.77;1.60;;;;;;;14.16;74.94;99736.91;8405503;28;20522;-82
2022/07/28 06:48:51;;;;;;;5.80;1.70;;;;;;;14.34;73.58;99738.50;8453274;28;20066;-84
2022/07/28 06:52:53;;;;;;;6.30;2.10;;;;;;;14.52;71.26;99734.72;8462430;28;20419;-85
2022/07/28 06:56:54;;;;;;;8.00;1.60;;;;;;;14.72;69.76;99728.66;8455724;28;20084;-83
2022/07/28 07:00:55;;;;;;;3.72;1.70;;;;;;;14.86;69.34;99738.56;8462365;28;20052;-82
2022/07/28 07:04:57;;;;;;;12.05;1.67;;;;;;;14.93;69.23;99733.44;8462491;28;20047;-82
2022/07/28 07:08:58;;;;;;;10.23;1.90;;;;;;;14.97;68.44;99737.09;8445112;28;20044;-83
2022/07/28 07:12:59;;;;;;;5.57;1.52;;;;;;;15.12;66.35;99744.78;8451634;28;20074;-82
2022/07/28 07:17:00;;;;;;;5.90;1.35;;;;;;;15.28;65.55;99745.81;8462064;28;20130;-84
2022/07/28 07:21:01;;;;;;;3.67;1.52;;;;;;;15.42;65.93;99738.28;8447825;28;20058;-82
2022/07/28 07:25:13;;;;;;;8.68;1.20;;;;;;;15.50;65.47;99742.88;8394068;28;20066;-82
2022/07/28 07:29:14;;;;;;;5.32;1.45;;;;;;;15.56;64.36;99747.06;8434664;28;20490;-83
2022/07/28 07:33:15;;;;;;;4.85;1.50;;;;;;;15.69;64.22;99744.47;8452635;28;20048;-82
2022/07/28 07:37:16;;;;;;;6.45;1.60;;;;;;;15.83;64.62;99755.94;8391133;28;20052;-81
2022/07/28 07:41:17;;;;;;;8.70;1.75;;;;;;;15.96;63.43;99749.47;8454762;28;20388;-82
2022/07/28 07:45:18;;;;;;;6.57;1.58;;;;;;;16.08;63.05;99752.28;8444694;28;20044;-82
2022/07/28 07:49:19;;;;;;;10.15;1.70;;;;;;;16.20;63.54;99760.53;8443397;28;20468;-82
2022/07/28 07:53:21;;;;;;;8.02;1.50;;;;;;;16.31;61.93;99745.41;8440826;28;20048;-83
2022/07/28 07:57:22;;;;;;;6.35;1.20;;;;;;;16.47;62.58;99760.03;8448413;28;20040;-83
2022/07/28 08:01:23;;;;;;;8.27;1.40;;;;;;;16.59;62.13;99750.38;8418209;28;20049;-83
2022/07/28 08:05:24;;;;;;;8.50;1.40;;;;;;;16.73;61.59;99745.44;8429795;28;20051;-82
2022/07/28 08:09:28;;;;;;;6.68;1.60;;;;;;;16.84;61.31;99741.16;8453762;28;20050;-82
2022/07/28 08:13:29;;;;;;;8.30;1.40;;;;;;;16.99;61.06;99743.28;8411793;28;20127;-81
2022/07/28 08:17:30;;;;;;;3.83;1.35;;;;;;;17.16;60.20;99748.56;8437137;28;20279;-81
2022/07/28 08:21:31;;;;;;;5.43;1.20;;;;;;;17.30;59.44;99743.59;8393512;28;20048;-80
2022/07/28 08:25:35;;;;;;;7.80;1.38;;;;;;;17.49;58.05;99739.56;8438992;28;20040;-83
2022/07/28 08:29:36;;;;;;;5.95;1.25;;;;;;;17.67;58.63;99740.97;8426427;28;20048;-83
2022/07/28 08:33:37;;;;;;;6.18;1.40;;;;;;;17.84;57.86;99740.75;8429704;28;20055;-82
2022/07/28 08:37:39;;;;;;;5.13;1.33;;;;;;;17.95;57.10;99741.88;8436585;28;20052;-82
2022/07/28 08:41:45;;;;;;;6.13;1.50;;;;;;;18.12;57.16;99736.19;8440481;28;20060;-82
2022/07/28 08:45:47;;;;;;;5.50;1.38;;;;;;;18.22;55.66;99729.44;8406087;28;20105;-82
2022/07/28 08:49:49;;;;;;;4.00;1.23;;;;;;;18.38;55.36;99733.06;8441356;28;20052;-82
2022/07/28 08:53:50;;;;;;;4.38;1.15;;;;;;;18.59;53.58;99737.59;8394120;28;20056;-81
2022/07/28 08:57:56;;;;;;;2.22;0.90;;;;;;;18.65;51.69;99736.22;8451806;28;20048;-82
2022/07/28 09:01:57;;;;;;;5.32;1.20;;;;;;;18.80;51.55;99730.81;8465449;28;20043;-82
2022/07/28 09:05:58;;;;;;;4.30;1.27;;;;;;;18.96;49.84;99731.66;8440870;28;20051;-82
2022/07/28 09:10:02;;;;;;;3.92;1.30;;;;;;;19.14;48.46;99725.88;8431867;28;20499;-81
2022/07/28 09:14:04;;;;;;;4.60;1.23;;;;;;;19.27;48.44;99724.66;8444721;28;20036;-80
2022/07/28 09:18:06;;;;;;;4.15;1.30;;;;;;;19.49;49.33;99726.81;8413766;28;20050;-82
2022/07/28 09:22:07;;;;;;;6.28;1.10;;;;;;;19.80;49.35;99726.03;8432065;28;20123;-83
2022/07/28 09:26:08;;;;;;;3.22;1.02;;;;;;;20.08;49.15;99720.41;8385925;28;20101;-83
2022/07/28 09:30:10;;;;;;;7.35;1.27;;;;;;;20.18;47.88;99714.38;8440337;28;20055;-83
2022/07/28 09:34:12;;;;;;;8.88;1.30;;;;;;;20.16;45.92;99717.47;8436424;28;20047;-82
2022/07/28 09:38:13;;;;;;;4.90;1.33;;;;;;;20.34;46.70;99720.66;8397708;28;20100;-81
2022/07/28 09:42:14;;;;;;;3.25;1.08;;;;;;;20.67;45.55;99724.88;8452912;28;20116;-82
2022/07/28 09:46:17;;;;;;;2.83;1.20;;;;;;;20.72;44.74;99716.34;8452922;28;20039;-83
2022/07/28 09:50:19;;;;;;;6.30;1.50;;;;;;;20.52;46.08;99718.25;8458313;27;20054;-82
2022/07/28 09:54:22;;;;;;;8.60;1.65;;;;;;;20.31;45.57;99712.28;8395090;28;20044;-82
2022/07/28 09:58:24;;;;;;;5.72;1.40;;;;;;;20.33;44.94;99716.31;8453283;28;20399;-82
2022/07/28 10:02:26;;;;;;;6.40;0.93;;;;;;;20.28;45.01;99708.34;8406785;28;20117;-83
2022/07/28 10:06:30;;;;;;;7.35;1.50;;;;;;;20.49;46.06;99708.81;8430855;28;20056;-82
2022/07/28 10:10:30;;;;;;;2.97;1.00;;;;;;;20.94;46.26;99701.84;8445506;28;20058;-82
2022/07/28 10:14:32;;;;;;;8.38;1.20;;;;;;;20.99;45.69;99704.34;8454344;28;20040;-82
2022/07/28 10:18:33;;;;;;;11.23;1.50;;;;;;;20.85;45.89;99699.34;8441845;28;20457;-82
2022/07/28 10:22:36;;;;;;;4.22;1.10;;;;;;;21.00;44.48;99694.91;8412453;28;20407;-82
2022/07/28 10:26:42;;;;;;;6.43;1.10;;;;;;;21.22;43.53;99688.69;8449405;28;20514;-81
2022/07/28 10:30:43;;;;;;;6.25;1.15;;;;;;;21.49;43.58;99695.84;8447093;28;20423;-81
2022/07/28 10:34:59;;;;;;;3.38;1.20;;;;;;;21.65;44.08;99697.66;8427518;28;20044;-81
2022/07/28 10:39:12;;;;;;;4.60;1.23;;;;;;;21.80;43.00;99693.97;8437936;28;20043;-81
2022/07/28 10:43:14;;;;;;;5.68;0.93;;;;;;;21.93;44.17;99689.88;8443558;28;20047;-79
2022/07/28 10:47:15;;;;;;;2.88;1.05;;;;;;;22.24;43.49;99686.81;8409115;28;20051;-76
2022/07/28 10:51:16;;;;;;;7.75;1.27;;;;;;;22.51;42.40;99684.00;8379263;28;20068;-79
2022/07/28 10:55:38;;;;;;;4.15;1.30;;;;;;;22.50;41.94;99679.66;8404311;28;20484;-79
2022/07/28 10:59:58;;;;;;;4.90;1.20;;;;;;;22.05;40.71;99689.66;8364277;28;20049;-79
2022/07/28 11:03:59;;;;;;;2.83;1.20;;;;;;;22.28;42.17;99693.16;8405606;28;20040;-80
2022/07/28 11:08:08;;;;;;;3.10;1.13;;;;;;;22.29;42.43;99689.25;8402011;28;20097;-79
2022/07/28 11:12:14;;;;;;;5.15;1.00;;;;;;;22.54;42.71;99683.25;8394390;28;20063;-79
2022/07/28 11:16:14;;;;;;;4.30;1.20;;;;;;;22.73;41.51;99680.38;8404786;28;20446;-79
2022/07/28 11:20:16;;;;;;;3.50;1.02;;;;;;;22.86;42.41;99678.94;8406858;28;20140;-79
2022/07/28 11:24:17;;;;;;;5.07;1.10;;;;;;;22.75;39.78;99683.53;8401858;28;20052;-80
2022/07/28 11:28:18;;;;;;;8.80;1.50;;;;;;;22.76;39.06;99685.13;8394127;28;20106;-79
2022/07/28 11:32:19;;;;;;;2.33;1.00;;;;;;;22.72;40.08;99681.53;8371659;28;20458;-80
2022/07/28 11:36:20;;;;;;;5.13;1.25;;;;;;;22.67;39.57;99676.34;8411425;28;20047;-82
2022/07/28 11:40:38;;;;;;;5.82;1.00;;;;;;;22.75;40.60;99667.00;8396532;28;20127;-79
2022/07/28 11:44:39;;;;;;;11.27;1.47;;;;;;;22.98;40.68;99664.91;8358389;28;20041;-79
2022/07/28 11:48:43;;;;;;;2.97;1.15;;;;;;;23.09;41.24;99657.56;8399759;28;20302;-77
2022/07/28 11:52:55;;;;;;;6.35;1.30;;;;;;;23.25;40.83;99645.50;8413833;28;20472;-79
2022/07/28 11:56:57;;;;;;;3.28;1.20;;;;;;;23.45;41.60;99649.59;8440517;28;20094;-77
2022/07/28 12:01:18;;;;;;;7.15;1.33;;;;;;;23.65;41.66;99642.69;8453147;28;20123;-76
2022/07/28 12:05:21;;;;;;;2.35;1.15;;;;;;;23.84;41.22;99645.19;8456848;28;20411;-79
2022/07/28 12:09:29;;;;;;;8.98;1.98;;;;;;;23.92;41.17;99646.81;8403260;28;20514;-77
2022/07/28 12:13:29;;;;;;;2.83;1.25;;;;;;;23.93;41.06;99637.38;8453436;28;20044;-77
2022/07/28 12:17:32;;;;;;;4.80;1.20;;;;;;;23.99;39.24;99646.88;8437434;28;20047;-79
2022/07/28 12:21:39;;;;;;;2.47;1.08;;;;;;;24.00;39.23;99637.41;8445838;28;20052;-78
2022/07/28 12:25:42;;;;;;;3.60;1.17;;;;;;;23.83;38.25;99638.09;8457858;28;20043;-79
2022/07/28 12:29:42;;;;;;;2.35;1.02;;;;;;;;;;8437301;28;20044;-81
2022/07/28 12:33:44;;;;;;;3.58;1.02;;;;;;;23.95;37.25;99635.00;8454151;27;20503;-79
2022/07/28 12:37:49;;;;;;;4.03;1.20;;;;;;;23.95;36.60;99629.47;8458661;28;20418;-81
2022/07/28 12:42:02;;;;;;;2.17;0.98;;;;;;;24.16;37.25;99622.53;8453612;28;20051;-79
2022/07/28 12:46:02;;;;;;;4.07;1.23;;;;;;;24.11;36.63;99614.59;8464277;27;20047;-78
2022/07/28 12:50:18;;;;;;;3.92;1.20;;;;;;;24.27;36.99;99617.88;8452609;28;20396;-82
2022/07/28 12:54:33;;;;;;;4.18;1.15;;;;;;;24.30;37.67;99612.34;8443017;27;20138;-82
2022/07/28 12:58:55;;;;;;;4.30;1.05;;;;;;;24.39;37.63;99604.50;8441459;28;20101;-81
2022/07/28 13:02:57;;;;;;;7.18;1.15;;;;;;;24.44;37.65;99606.09;8412648;28;20048;-82
2022/07/28 13:06:59;;;;;;;7.97;1.20;;;;;;;24.53;38.60;99609.28;8410839;28;20045;-81
2022/07/28 13:11:00;;;;;;;4.50;1.25;;;;;;;24.67;38.68;99601.03;8415050;28;20477;-81
2022/07/28 13:15:09;;;;;;;5.35;1.23;;;;;;;24.85;38.09;99597.53;8391156;28;20085;-81
2022/07/28 13:19:20;;;;;;;3.40;1.27;;;;;;;25.00;37.02;99593.63;8407238;28;20159;-80
2022/07/28 13:23:23;;;;;;;4.32;1.27;;;;;;;25.05;37.68;99590.47;8385383;28;20087;-81
2022/07/28 13:27:25;;;;;;;4.85;1.23;;;;;;;25.13;37.94;99589.28;8387891;28;20491;-80
2022/07/28 13:31:26;;;;;;;2.17;1.40;;;;;;;25.05;36.55;99585.75;8412208;28;20048;-80
2022/07/28 13:35:27;;;;;;;4.35;1.10;;;;;;;25.00;37.01;99585.34;8440009;28;20060;-81
2022/07/28 13:39:29;;;;;;;4.35;1.40;;;;;;;25.86;34.47;99597.91;8436440;28;20047;-82
2022/07/28 13:43:30;;;;;;;3.03;1.20;;;;;;;27.39;32.58;99589.59;8442090;28;20052;-81
2022/07/28 13:47:31;;;;;;;5.72;1.50;;;;;;;29.25;31.16;99582.09;8448107;28;20039;-83
2022/07/28 13:51:32;;;;;;;2.65;1.20;;;;;;;30.61;29.38;99590.28;8411197;28;20193;-79
2022/07/28 13:55:33;;;;;;;2.50;1.00;;;;;;;31.57;28.21;99582.38;8389005;28;20047;-82
2022/07/28 13:59:34;;;;;;;4.05;1.40;;;;;;;32.68;27.23;99578.84;8464013;28;20096;-85
2022/07/28 14:03:35;;;;;;;3.20;1.30;;;;;;;33.59;25.55;99582.66;8463875;28;20052;-81
2022/07/28 14:07:36;;;;;;;2.78;1.33;;;;;;;34.39;25.17;99579.38;8463918;28;20078;-82
2022/07/28 14:11:37;;;;;;;3.83;1.38;;;;;;;34.37;24.07;99579.84;8463694;28;20547;-81
2022/07/28 14:15:39;;;;;;;5.15;1.38;;;;;;;34.64;23.22;99576.38;8459406;28;20140;-81
2022/07/28 14:19:40;;;;;;;5.82;1.60;;;;;;;35.72;22.93;99574.38;8401869;28;20419;-80
2022/07/28 14:23:41;;;;;;;2.08;1.30;;;;;;;36.46;21.27;99564.59;8447446;28;20048;-79
2022/07/28 14:27:42;;;;;;;4.50;1.50;;;;;;;36.60;21.86;99569.53;8449080;28;20054;-80
2022/07/28 14:31:42;;;;;;;5.63;1.65;;;;;;;34.58;24.07;99573.41;8441068;28;20062;-77
2022/07/28 14:35:43;;;;;;;1.67;1.30;;;;;;;35.45;23.25;99572.31;8453824;28;20054;-78
2022/07/28 14:39:44;;;;;;;6.38;1.70;;;;;;;36.68;21.97;99565.16;8448834;28;20048;-78
2022/07/28 14:43:45;;;;;;;2.75;1.50;;;;;;;37.65;21.03;99568.34;8444277;28;20056;-77
2022/07/28 14:47:46;;;;;;;3.78;1.48;;;;;;;38.49;20.49;99562.25;8400406;28;20074;-77
2022/07/28 14:51:47;;;;;;;2.55;1.40;;;;;;;38.69;19.04;99559.50;8451799;28;20089;-78
2022/07/28 14:55:48;;;;;;;4.22;1.23;;;;;;;38.73;19.74;99554.41;8448791;28;20551;-77
2022/07/28 14:59:50;;;;;;;2.38;1.20;;;;;;;39.22;19.33;99561.28;8437104;28;20044;-78
2022/07/28 15:03:52;;;;;;;3.40;1.20;;;;;;;39.84;18.69;99565.69;8444472;28;20484;-80
2022/07/28 15:07:53;;;;;;;3.05;1.15;;;;;;;39.81;17.67;99566.69;8443357;27;20485;-82
2022/07/28 15:11:54;;;;;;;3.92;1.60;;;;;;;40.33;18.05;99568.25;8458115;27;20071;-80
2022/07/28 15:15:58;;;;;;;3.13;1.20;;;;;;;40.83;17.71;99559.38;8400278;28;20044;-81
2022/07/28 15:19:59;;;;;;;4.80;1.30;;;;;;;40.96;17.35;99551.22;8441460;28;20054;-81
2022/07/28 15:24:00;;;;;;;3.42;1.20;;;;;;;40.65;17.23;99549.22;8438718;28;20067;-81
2022/07/28 15:28:01;;;;;;;4.00;1.20;;;;;;;39.78;17.64;99559.19;8385338;28;20103;-80
2022/07/28 15:32:03;;;;;;;6.10;1.23;;;;;;;37.97;18.42;99556.16;8436798;28;20044;-81
2022/07/28 15:36:05;;;;;;;11.93;1.70;;;;;;;35.64;20.13;99550.63;8438758;27;20468;-81
2022/07/28 15:40:07;;;;;;;3.50;1.20;;;;;;;33.51;22.20;99553.34;8388642;28;20052;-80
2022/07/28 15:44:08;;;;;;;3.65;1.20;;;;;;;32.15;23.19;99550.47;8434805;28;20134;-80
2022/07/28 15:48:09;;;;;;;2.22;1.17;;;;;;;31.46;24.07;99538.78;8410609;28;20442;-81
2022/07/28 15:52:11;;;;;;;2.72;1.10;;;;;;;31.04;24.54;99551.81;8428530;28;20078;-81
2022/07/28 15:56:12;;;;;;;2.30;0.98;;;;;;;30.07;25.03;99539.66;8403133;28;20055;-81
2022/07/28 16:00:13;;;;;;;2.97;1.25;;;;;;;29.34;25.90;99533.09;8434450;28;20065;-79
2022/07/28 16:04:14;;;;;;;3.65;1.50;;;;;;;28.69;26.27;99537.31;8463021;27;20047;-80
2022/07/28 16:08:17;;;;;;;4.35;1.70;;;;;;;28.24;27.20;99538.72;8469423;27;20700;-80
2022/07/28 16:12:20;;;;;;;4.20;1.30;;;;;;;27.92;27.49;99528.78;8470030;27;20039;-80
2022/07/28 16:16:21;;;;;;;5.10;1.20;;;;;;;27.55;28.07;99531.59;8469482;27;20051;-82
2022/07/28 16:20:23;;;;;;;7.18;1.20;;;;;;;27.24;28.49;99517.59;8445580;27;20406;-81
2022/07/28 16:24:24;;;;;;;2.70;1.05;;;;;;;27.03;28.71;99523.34;8469324;27;20047;-80
2022/07/28 16:28:27;;;;;;;7.07;1.30;;;;;;;27.00;29.56;99513.09;8468554;28;20443;-80
2022/07/28 16:32:28;;;;;;;5.07;1.30;;;;;;;26.66;30.03;99525.97;8413534;28;20475;-78
2022/07/28 16:36:29;;;;;;;6.40;1.30;;;;;;;26.34;30.05;99524.19;8462680;28;20495;-77
2022/07/28 16:40:31;;;;;;;3.45;1.20;;;;;;;26.11;30.33;99523.91;8433006;27;20160;-78
2022/07/28 16:44:32;;;;;;;8.02;1.35;;;;;;;25.90;30.40;99529.53;8452647;28;20096;-79
2022/07/28 16:48:33;;;;;;;7.78;1.33;;;;;;;25.63;30.73;99524.50;8449298;28;20109;-78
2022/07/28 16:52:34;;;;;;;6.32;1.65;;;;;;;25.46;31.29;99525.28;8404022;28;20055;-77
2022/07/28 16:56:35;;;;;;;8.82;2.10;;;;;;;25.25;31.75;99528.09;8421286;28;20048;-77
2022/07/28 17:00:36;;;;;;;10.65;3.05;;;;;;;25.02;32.05;99524.94;8465459;27;20048;-77
2022/07/28 17:04:37;;;;;;;7.57;2.75;;;;;;;24.84;32.40;99522.16;8465401;27;20406;-81
2022/07/28 17:08:38;;;;;;;4.78;1.52;;;;;;;24.64;32.98;99521.72;8421419;28;20467;-82
2022/07/28 17:12:39;;;;;;;5.95;1.98;;;;;;;24.43;33.10;99521.69;8464510;28;20063;-81
2022/07/28 17:16:40;;;;;;;7.38;1.60;;;;;;;24.31;33.57;99524.81;8464160;28;20044;-82
2022/07/28 17:20:41;;;;;;;4.05;1.45;;;;;;;24.19;34.00;99519.66;8442084;28;20078;-82
2022/07/28 17:24:43;;;;;;;5.60;1.60;;;;;;;24.06;34.24;99519.19;8442622;28;20130;-81
2022/07/28 17:28:44;;;;;;;5.88;1.50;;;;;;;23.94;35.10;99523.09;8441250;28;20035;-80
2022/07/28 17:32:45;;;;;;;3.67;1.60;;;;;;;23.81;35.63;99510.03;8416993;28;20477;-82
2022/07/28 17:36:46;;;;;;;2.88;1.40;;;;;;;23.65;36.24;99526.88;8390525;27;20044;-82
2022/07/28 17:40:49;;;;;;;5.85;1.40;;;;;;;23.50;36.52;99533.50;8442649;28;20503;-82
2022/07/28 17:44:55;;;;;;;3.67;1.27;;;;;;;23.34;36.62;99533.75;8467710;27;20078;-83
2022/07/28 17:48:56;;;;;;;6.55;1.48;;;;;;;23.17;37.50;99535.22;8450796;27;20051;-82
2022/07/28 17:52:57;;;;;;;3.22;1.15;;;;;;;22.97;38.26;99536.63;8435975;27;20055;-84
2022/07/28 17:57:00;;;;;;;5.13;1.65;;;;;;;22.76;38.74;99541.94;8443743;28;20551;-81
2022/07/28 18:01:07;;;;;;;2.67;1.40;;;;;;;22.59;39.79;99542.53;8427694;28;20081;-81
2022/07/28 18:05:08;;;;;;;8.07;2.53;;;;;;;22.42;39.98;99543.16;8462415;28;20412;-82
2022/07/28 18:09:10;;;;;;;5.57;1.63;;;;;;;22.20;40.79;99545.69;8428814;28;20525;-81
2022/07/28 18:13:11;;;;;;;12.00;3.60;;;;;;;21.96;41.62;99543.41;8464129;28;20092;-82
2022/07/28 18:17:12;;;;;;;13.77;5.63;;;;;;;21.68;42.77;99548.50;8463210;27;20445;-81
2022/07/28 18:21:14;;;;;;;16.63;6.15;;;;;;;21.46;43.35;99542.72;8463694;28;20050;-81
2022/07/28 18:25:14;;;;;;;26.10;10.10;;;;;;;21.23;44.14;99544.72;8449635;27;21286;-82
2022/07/28 18:29:16;;;;;;;21.80;8.15;;;;;;;20.97;44.90;99539.16;8473869;27;20043;-81
2022/07/28 18:33:17;;;;;;;26.92;9.50;;;;;;;20.74;45.62;99538.34;8458669;27;20463;-81
2022/07/28 18:37:18;;;;;;;44.85;16.42;;;;;;;20.52;46.14;99543.47;8469698;27;20036;-82
2022/07/28 18:41:19;;;;;;;56.40;18.42;;;;;;;20.34;46.62;99542.34;8431659;28;20036;-77
2022/07/28 18:45:20;;;;;;;48.10;15.73;;;;;;;20.12;47.28;99541.13;8452216;27;20351;-82
2022/07/28 18:49:21;;;;;;;45.03;13.02;;;;;;;19.91;47.74;99550.84;8400265;28;20506;-84
2022/07/28 18:53:25;;;;;;;35.85;13.68;;;;;;;19.76;48.23;99545.06;8420407;27;20044;-86
2022/07/28 18:57:26;;;;;;;33.75;12.65;;;;;;;19.54;48.47;99553.97;8439857;28;20461;-84
2022/07/28 19:01:27;;;;;;;24.27;8.18;;;;;;;19.31;48.72;99555.75;8462155;28;20483;-84
2022/07/28 19:05:28;;;;;;;21.23;5.53;;;;;;;19.15;48.89;99557.69;8459394;27;20130;-80